Magnolia Beach, Texas
Current Conditions -  °F | °C
As of 9:35 AM on Monday 22 Dec 2014 (Local Time) from KPKV Reporting Station
Overcast Overcast  
Wind Chill: 62°   Ceiling: 2600
Heat Index: 62°   Visibility: 10mi
Dew Point: 61°   Wind: 7mph
Humidity: 98%   Direction: 230°SW
Pressure: 29.79"   Gusts: NA
Location:  28.5342°N, 96.663°W
Report Text: KPKV 221535Z AUTO 23006KT 10SM OVC026 17/16 A2979 RMK AO2 T01660163
Loading
Personal Weather Stations






























Interactive Weather Map New forecast layout! Learn more

10-Day Weather Forecast

Advertisements
Track Severe Weather on mobile